sensor_id;sensor_type;location;lat;lon;timestamp;temperature;humidity
14749;DHT22;7466;53.574;9.976;2022-08-19T00:00:51;19.50;99.90
14749;DHT22;7466;53.574;9.976;2022-08-19T00:03:18;19.40;99.90
14749;DHT22;7466;53.574;9.976;2022-08-19T00:05:45;19.40;99.90
14749;DHT22;7466;53.574;9.976;2022-08-19T00:08:12;19.40;99.90
14749;DHT22;7466;53.574;9.976;2022-08-19T00:10:38;19.50;99.90
14749;DHT22;7466;53.574;9.976;2022-08-19T00:13:05;19.50;99.90
14749;DHT22;7466;53.574;9.976;2022-08-19T00:15:33;19.50;99.90
14749;DHT22;7466;53.574;9.976;2022-08-19T00:18:00;19.50;99.90
14749;DHT22;7466;53.574;9.976;2022-08-19T00:20:27;19.50;99.90
14749;DHT22;7466;53.574;9.976;2022-08-19T00:22:54;19.50;99.90
14749;DHT22;7466;53.574;9.976;2022-08-19T00:25:21;19.50;99.90
14749;DHT22;7466;53.574;9.976;2022-08-19T00:27:48;19.40;99.90
14749;DHT22;7466;53.574;9.976;2022-08-19T00:30:15;19.50;99.90
14749;DHT22;7466;53.574;9.976;2022-08-19T00:32:43;19.40;99.90
14749;DHT22;7466;53.574;9.976;2022-08-19T00:35:10;19.40;99.90
14749;DHT22;7466;53.574;9.976;2022-08-19T00:37:37;19.40;99.90
14749;DHT22;7466;53.574;9.976;2022-08-19T00:40:10;19.40;99.90
14749;DHT22;7466;53.574;9.976;2022-08-19T00:42:37;19.50;99.90
14749;DHT22;7466;53.574;9.976;2022-08-19T00:45:10;19.40;99.90
14749;DHT22;7466;53.574;9.976;2022-08-19T00:47:38;19.50;99.90
14749;DHT22;7466;53.574;9.976;2022-08-19T00:50:08;19.40;99.90
14749;DHT22;7466;53.574;9.976;2022-08-19T00:52:40;19.40;99.90
14749;DHT22;7466;53.574;9.976;2022-08-19T00:55:09;19.50;99.90
14749;DHT22;7466;53.574;9.976;2022-08-19T00:57:39;19.40;99.90
14749;DHT22;7466;53.574;9.976;2022-08-19T01:00:09;19.30;99.90
14749;DHT22;7466;53.574;9.976;2022-08-19T01:02:37;19.30;99.90
14749;DHT22;7466;53.574;9.976;2022-08-19T01:05:09;19.40;99.90
14749;DHT22;7466;53.574;9.976;2022-08-19T01:07:38;19.30;99.90
14749;DHT22;7466;53.574;9.976;2022-08-19T01:10:09;19.40;99.90
14749;DHT22;7466;53.574;9.976;2022-08-19T01:12:37;19.40;99.90
14749;DHT22;7466;53.574;9.976;2022-08-19T01:15:06;19.40;99.90
14749;DHT22;7466;53.574;9.976;2022-08-19T01:17:34;19.40;99.90
14749;DHT22;7466;53.574;9.976;2022-08-19T01:20:04;19.40;99.90
14749;DHT22;7466;53.574;9.976;2022-08-19T01:22:35;19.40;99.90
14749;DHT22;7466;53.574;9.976;2022-08-19T01:25:04;19.40;99.90
14749;DHT22;7466;53.574;9.976;2022-08-19T01:27:37;19.50;99.90
14749;DHT22;7466;53.574;9.976;2022-08-19T01:30:07;19.40;99.90
14749;DHT22;7466;53.574;9.976;2022-08-19T01:32:34;19.40;99.90
14749;DHT22;7466;53.574;9.976;2022-08-19T01:35:03;19.40;99.90
14749;DHT22;7466;53.574;9.976;2022-08-19T01:37:43;19.50;99.90
14749;DHT22;7466;53.574;9.976;2022-08-19T01:40:11;19.50;99.90
14749;DHT22;7466;53.574;9.976;2022-08-19T01:42:38;19.40;99.90
14749;DHT22;7466;53.574;9.976;2022-08-19T01:45:07;19.40;99.90
14749;DHT22;7466;53.574;9.976;2022-08-19T01:47:35;19.40;99.90
14749;DHT22;7466;53.574;9.976;2022-08-19T01:50:03;19.50;99.90
14749;DHT22;7466;53.574;9.976;2022-08-19T01:52:30;19.40;99.90
14749;DHT22;7466;53.574;9.976;2022-08-19T01:54:59;19.40;99.90
14749;DHT22;7466;53.574;9.976;2022-08-19T01:57:25;19.40;99.90
14749;DHT22;7466;53.574;9.976;2022-08-19T01:59:52;19.40;99.90
14749;DHT22;7466;53.574;9.976;2022-08-19T02:02:19;19.40;99.90
14749;DHT22;7466;53.574;9.976;2022-08-19T02:04:46;19.40;99.90
14749;DHT22;7466;53.574;9.976;2022-08-19T02:07:13;19.30;99.90
14749;DHT22;7466;53.574;9.976;2022-08-19T02:09:40;19.30;99.90
14749;DHT22;7466;53.574;9.976;2022-08-19T02:12:08;19.30;99.90
14749;DHT22;7466;53.574;9.976;2022-08-19T02:14:36;19.20;99.90
14749;DHT22;7466;53.574;9.976;2022-08-19T02:17:03;19.20;99.90
14749;DHT22;7466;53.574;9.976;2022-08-19T02:19:30;19.20;99.90
14749;DHT22;7466;53.574;9.976;2022-08-19T02:21:58;19.20;99.90
14749;DHT22;7466;53.574;9.976;2022-08-19T02:24:25;19.20;99.90
14749;DHT22;7466;53.574;9.976;2022-08-19T02:26:52;19.20;99.90
14749;DHT22;7466;53.574;9.976;2022-08-19T02:29:21;19.20;99.90
14749;DHT22;7466;53.574;9.976;2022-08-19T02:31:48;19.10;99.90
14749;DHT22;7466;53.574;9.976;2022-08-19T02:34:17;19.10;99.90
14749;DHT22;7466;53.574;9.976;2022-08-19T02:36:44;19.10;99.90
14749;DHT22;7466;53.574;9.976;2022-08-19T02:39:10;19.10;99.90
14749;DHT22;7466;53.574;9.976;2022-08-19T02:41:36;19.10;99.90
14749;DHT22;7466;53.574;9.976;2022-08-19T02:44:03;19.10;99.90
14749;DHT22;7466;53.574;9.976;2022-08-19T02:46:32;19.10;99.90
14749;DHT22;7466;53.574;9.976;2022-08-19T02:49:01;19.10;99.90
14749;DHT22;7466;53.574;9.976;2022-08-19T02:51:30;19.00;99.90
14749;DHT22;7466;53.574;9.976;2022-08-19T02:53:57;19.00;99.90
14749;DHT22;7466;53.574;9.976;2022-08-19T02:56:25;19.00;99.90
14749;DHT22;7466;53.574;9.976;2022-08-19T02:58:53;19.10;99.90
14749;DHT22;7466;53.574;9.976;2022-08-19T03:01:22;19.10;99.90
14749;DHT22;7466;53.574;9.976;2022-08-19T03:03:51;19.10;99.90
14749;DHT22;7466;53.574;9.976;2022-08-19T03:06:18;19.00;99.90
14749;DHT22;7466;53.574;9.976;2022-08-19T03:08:47;19.00;99.90
14749;DHT22;7466;53.574;9.976;2022-08-19T03:11:16;19.10;99.90
14749;DHT22;7466;53.574;9.976;2022-08-19T03:13:43;19.00;99.90
14749;DHT22;7466;53.574;9.976;2022-08-19T03:16:11;19.00;99.90
14749;DHT22;7466;53.574;9.976;2022-08-19T03:18:38;19.00;99.90
14749;DHT22;7466;53.574;9.976;2022-08-19T03:21:07;19.10;99.90
14749;DHT22;7466;53.574;9.976;2022-08-19T03:23:34;19.10;99.90
14749;DHT22;7466;53.574;9.976;2022-08-19T03:26:04;19.00;99.90
14749;DHT22;7466;53.574;9.976;2022-08-19T03:28:32;19.00;99.90
14749;DHT22;7466;53.574;9.976;2022-08-19T03:31:01;19.00;99.90
14749;DHT22;7466;53.574;9.976;2022-08-19T03:33:29;19.00;99.90
14749;DHT22;7466;53.574;9.976;2022-08-19T03:36:02;18.90;99.90
14749;DHT22;7466;53.574;9.976;2022-08-19T03:38:31;18.90;99.90
14749;DHT22;7466;53.574;9.976;2022-08-19T03:41:03;18.90;99.90
14749;DHT22;7466;53.574;9.976;2022-08-19T03:43:32;18.80;99.90
14749;DHT22;7466;53.574;9.976;2022-08-19T03:46:04;18.80;99.90
14749;DHT22;7466;53.574;9.976;2022-08-19T03:48:32;18.80;99.90
14749;DHT22;7466;53.574;9.976;2022-08-19T03:50:59;18.70;99.90
14749;DHT22;7466;53.574;9.976;2022-08-19T03:53:26;18.70;99.90
14749;DHT22;7466;53.574;9.976;2022-08-19T03:55:55;18.70;99.90
14749;DHT22;7466;53.574;9.976;2022-08-19T03:58:23;18.70;99.90
14749;DHT22;7466;53.574;9.976;2022-08-19T04:00:51;18.70;99.90
14749;DHT22;7466;53.574;9.976;2022-08-19T04:03:18;18.70;99.90
14749;DHT22;7466;53.574;9.976;2022-08-19T04:05:46;18.70;99.90
14749;DHT22;7466;53.574;9.976;2022-08-19T04:08:14;18.70;99.90
14749;DHT22;7466;53.574;9.976;2022-08-19T04:10:46;18.70;99.90
14749;DHT22;7466;53.574;9.976;2022-08-19T04:13:15;18.80;99.90
14749;DHT22;7466;53.574;9.976;2022-08-19T04:15:44;18.70;99.90
14749;DHT22;7466;53.574;9.976;2022-08-19T04:18:12;18.60;99.90
14749;DHT22;7466;53.574;9.976;2022-08-19T04:20:42;18.60;99.90
14749;DHT22;7466;53.574;9.976;2022-08-19T04:23:09;18.60;99.90
14749;DHT22;7466;53.574;9.976;2022-08-19T04:25:38;18.60;99.90
14749;DHT22;7466;53.574;9.976;2022-08-19T04:28:06;18.60;99.90
14749;DHT22;7466;53.574;9.976;2022-08-19T04:30:40;18.60;99.90
14749;DHT22;7466;53.574;9.976;2022-08-19T04:33:07;18.60;99.90
14749;DHT22;7466;53.574;9.976;2022-08-19T04:35:36;18.60;99.90
14749;DHT22;7466;53.574;9.976;2022-08-19T04:38:04;18.60;99.90
14749;DHT22;7466;53.574;9.976;2022-08-19T04:40:32;18.50;99.90
14749;DHT22;7466;53.574;9.976;2022-08-19T04:43:16;18.60;99.90
14749;DHT22;7466;53.574;9.976;2022-08-19T04:45:45;18.60;99.90
14749;DHT22;7466;53.574;9.976;2022-08-19T04:48:12;18.50;99.90
14749;DHT22;7466;53.574;9.976;2022-08-19T04:50:41;18.50;99.90
14749;DHT22;7466;53.574;9.976;2022-08-19T04:53:09;18.50;99.90
14749;DHT22;7466;53.574;9.976;2022-08-19T04:55:39;18.50;99.90
14749;DHT22;7466;53.574;9.976;2022-08-19T04:58:06;18.50;99.90
14749;DHT22;7466;53.574;9.976;2022-08-19T05:00:33;18.60;99.90
14749;DHT22;7466;53.574;9.976;2022-08-19T05:03:01;18.60;99.90
14749;DHT22;7466;53.574;9.976;2022-08-19T05:05:28;18.60;99.90
14749;DHT22;7466;53.574;9.976;2022-08-19T05:07:57;18.50;99.90
14749;DHT22;7466;53.574;9.976;2022-08-19T05:10:24;18.40;99.90
14749;DHT22;7466;53.574;9.976;2022-08-19T05:12:50;18.40;99.90
14749;DHT22;7466;53.574;9.976;2022-08-19T05:15:17;18.40;99.90
14749;DHT22;7466;53.574;9.976;2022-08-19T05:17:45;18.40;99.90
14749;DHT22;7466;53.574;9.976;2022-08-19T05:20:33;18.40;99.90
14749;DHT22;7466;53.574;9.976;2022-08-19T05:23:17;18.40;99.90
14749;DHT22;7466;53.574;9.976;2022-08-19T05:25:44;18.40;99.90
14749;DHT22;7466;53.574;9.976;2022-08-19T05:28:11;18.40;99.90
14749;DHT22;7466;53.574;9.976;2022-08-19T05:30:38;18.40;99.90
14749;DHT22;7466;53.574;9.976;2022-08-19T05:33:06;18.40;99.90
14749;DHT22;7466;53.574;9.976;2022-08-19T05:35:35;18.40;99.90
14749;DHT22;7466;53.574;9.976;2022-08-19T05:38:03;18.40;99.90
14749;DHT22;7466;53.574;9.976;2022-08-19T05:40:33;18.40;99.90
14749;DHT22;7466;53.574;9.976;2022-08-19T05:43:01;18.40;99.90
14749;DHT22;7466;53.574;9.976;2022-08-19T05:45:28;18.40;99.90
14749;DHT22;7466;53.574;9.976;2022-08-19T05:47:55;18.40;99.90
14749;DHT22;7466;53.574;9.976;2022-08-19T05:50:24;18.40;99.90
14749;DHT22;7466;53.574;9.976;2022-08-19T05:52:52;18.40;99.90
14749;DHT22;7466;53.574;9.976;2022-08-19T05:55:19;18.40;99.90
14749;DHT22;7466;53.574;9.976;2022-08-19T05:57:48;18.40;99.90
14749;DHT22;7466;53.574;9.976;2022-08-19T06:00:15;18.50;99.90
14749;DHT22;7466;53.574;9.976;2022-08-19T06:02:42;18.40;99.90
14749;DHT22;7466;53.574;9.976;2022-08-19T06:05:10;18.40;99.90
14749;DHT22;7466;53.574;9.976;2022-08-19T06:07:37;18.40;99.90
14749;DHT22;7466;53.574;9.976;2022-08-19T06:10:09;18.30;99.90
14749;DHT22;7466;53.574;9.976;2022-08-19T06:12:36;18.40;99.90
14749;DHT22;7466;53.574;9.976;2022-08-19T06:15:06;18.40;99.90
14749;DHT22;7466;53.574;9.976;2022-08-19T06:17:33;18.40;99.90
14749;DHT22;7466;53.574;9.976;2022-08-19T06:20:00;18.40;99.90
14749;DHT22;7466;53.574;9.976;2022-08-19T06:22:27;18.40;99.90
14749;DHT22;7466;53.574;9.976;2022-08-19T06:24:55;18.40;99.90
14749;DHT22;7466;53.574;9.976;2022-08-19T06:27:23;18.50;99.90
14749;DHT22;7466;53.574;9.976;2022-08-19T06:29:50;18.60;99.90
14749;DHT22;7466;53.574;9.976;2022-08-19T06:32:18;18.60;99.90
14749;DHT22;7466;53.574;9.976;2022-08-19T06:34:45;18.60;99.90
14749;DHT22;7466;53.574;9.976;2022-08-19T06:37:13;18.60;99.90
14749;DHT22;7466;53.574;9.976;2022-08-19T06:39:41;18.60;99.90
14749;DHT22;7466;53.574;9.976;2022-08-19T06:42:10;18.60;99.90
14749;DHT22;7466;53.574;9.976;2022-08-19T06:44:45;18.70;99.90
14749;DHT22;7466;53.574;9.976;2022-08-19T06:47:16;18.70;99.90
14749;DHT22;7466;53.574;9.976;2022-08-19T06:49:43;18.70;99.90
14749;DHT22;7466;53.574;9.976;2022-08-19T06:52:11;18.80;99.90
14749;DHT22;7466;53.574;9.976;2022-08-19T06:54:38;18.80;99.90
14749;DHT22;7466;53.574;9.976;2022-08-19T06:57:06;18.80;99.90
14749;DHT22;7466;53.574;9.976;2022-08-19T06:59:34;18.80;99.90
14749;DHT22;7466;53.574;9.976;2022-08-19T07:02:05;18.80;99.90
14749;DHT22;7466;53.574;9.976;2022-08-19T07:04:33;18.90;99.90
14749;DHT22;7466;53.574;9.976;2022-08-19T07:07:03;18.80;99.90
14749;DHT22;7466;53.574;9.976;2022-08-19T07:09:31;18.80;99.90
14749;DHT22;7466;53.574;9.976;2022-08-19T07:11:58;18.70;99.90
14749;DHT22;7466;53.574;9.976;2022-08-19T07:14:26;18.80;99.90
14749;DHT22;7466;53.574;9.976;2022-08-19T07:16:55;18.90;99.90
14749;DHT22;7466;53.574;9.976;2022-08-19T07:19:25;18.80;99.90
14749;DHT22;7466;53.574;9.976;2022-08-19T07:21:54;18.90;99.90
14749;DHT22;7466;53.574;9.976;2022-08-19T07:24:22;19.00;99.90
14749;DHT22;7466;53.574;9.976;2022-08-19T07:26:51;18.80;99.90
14749;DHT22;7466;53.574;9.976;2022-08-19T07:29:19;18.90;99.90
14749;DHT22;7466;53.574;9.976;2022-08-19T07:31:48;19.00;99.90
14749;DHT22;7466;53.574;9.976;2022-08-19T07:34:15;19.20;99.90
14749;DHT22;7466;53.574;9.976;2022-08-19T07:36:44;19.30;99.90
14749;DHT22;7466;53.574;9.976;2022-08-19T07:39:16;19.30;99.90
14749;DHT22;7466;53.574;9.976;2022-08-19T07:41:45;19.30;99.90
14749;DHT22;7466;53.574;9.976;2022-08-19T07:44:13;19.40;99.90
14749;DHT22;7466;53.574;9.976;2022-08-19T07:46:44;19.50;99.90
14749;DHT22;7466;53.574;9.976;2022-08-19T07:49:13;19.40;99.90
14749;DHT22;7466;53.574;9.976;2022-08-19T07:51:46;19.40;99.90
14749;DHT22;7466;53.574;9.976;2022-08-19T07:54:13;19.50;99.90
14749;DHT22;7466;53.574;9.976;2022-08-19T07:56:40;19.50;99.90
14749;DHT22;7466;53.574;9.976;2022-08-19T07:59:07;19.50;99.90
14749;DHT22;7466;53.574;9.976;2022-08-19T08:01:35;19.50;99.90
14749;DHT22;7466;53.574;9.976;2022-08-19T08:04:02;19.50;99.90
14749;DHT22;7466;53.574;9.976;2022-08-19T08:06:48;19.60;99.90
14749;DHT22;7466;53.574;9.976;2022-08-19T08:09:36;19.50;99.90
14749;DHT22;7466;53.574;9.976;2022-08-19T08:12:06;19.50;99.90
14749;DHT22;7466;53.574;9.976;2022-08-19T08:14:35;19.60;99.90
14749;DHT22;7466;53.574;9.976;2022-08-19T08:17:04;19.50;99.90
14749;DHT22;7466;53.574;9.976;2022-08-19T08:19:32;19.50;99.90
14749;DHT22;7466;53.574;9.976;2022-08-19T08:22:01;19.50;99.90
14749;DHT22;7466;53.574;9.976;2022-08-19T08:24:29;19.50;99.90
14749;DHT22;7466;53.574;9.976;2022-08-19T08:26:58;19.60;99.90
14749;DHT22;7466;53.574;9.976;2022-08-19T08:29:26;19.60;99.90
14749;DHT22;7466;53.574;9.976;2022-08-19T08:31:53;19.60;99.90
14749;DHT22;7466;53.574;9.976;2022-08-19T08:34:20;19.70;99.90
14749;DHT22;7466;53.574;9.976;2022-08-19T08:36:47;19.70;99.90
14749;DHT22;7466;53.574;9.976;2022-08-19T08:39:17;19.80;99.90
14749;DHT22;7466;53.574;9.976;2022-08-19T08:41:51;19.80;99.90
14749;DHT22;7466;53.574;9.976;2022-08-19T08:44:22;19.80;99.90
14749;DHT22;7466;53.574;9.976;2022-08-19T08:46:52;19.80;99.90
14749;DHT22;7466;53.574;9.976;2022-08-19T08:49:28;19.80;99.90
14749;DHT22;7466;53.574;9.976;2022-08-19T08:52:00;19.90;99.90
14749;DHT22;7466;53.574;9.976;2022-08-19T08:54:33;19.90;99.90
14749;DHT22;7466;53.574;9.976;2022-08-19T08:57:04;19.90;99.90
14749;DHT22;7466;53.574;9.976;2022-08-19T08:59:35;19.90;99.90
14749;DHT22;7466;53.574;9.976;2022-08-19T09:02:03;19.90;99.90
14749;DHT22;7466;53.574;9.976;2022-08-19T09:04:30;19.80;99.90
14749;DHT22;7466;53.574;9.976;2022-08-19T09:07:09;19.90;99.90
14749;DHT22;7466;53.574;9.976;2022-08-19T09:09:40;19.90;99.90
14749;DHT22;7466;53.574;9.976;2022-08-19T09:12:12;20.00;99.90
14749;DHT22;7466;53.574;9.976;2022-08-19T09:14:49;20.00;99.90
14749;DHT22;7466;53.574;9.976;2022-08-19T09:17:19;20.00;99.90
14749;DHT22;7466;53.574;9.976;2022-08-19T09:19:52;20.00;99.90
14749;DHT22;7466;53.574;9.976;2022-08-19T09:22:19;20.10;99.90
14749;DHT22;7466;53.574;9.976;2022-08-19T09:24:49;20.10;99.90
14749;DHT22;7466;53.574;9.976;2022-08-19T09:27:18;20.20;99.90
14749;DHT22;7466;53.574;9.976;2022-08-19T09:29:46;20.20;99.90
14749;DHT22;7466;53.574;9.976;2022-08-19T09:32:14;20.20;99.90
14749;DHT22;7466;53.574;9.976;2022-08-19T09:34:41;20.20;99.90
14749;DHT22;7466;53.574;9.976;2022-08-19T09:37:09;20.00;99.90
14749;DHT22;7466;53.574;9.976;2022-08-19T09:39:35;20.10;99.90
14749;DHT22;7466;53.574;9.976;2022-08-19T09:42:05;20.10;99.90
14749;DHT22;7466;53.574;9.976;2022-08-19T09:44:36;20.30;99.90
14749;DHT22;7466;53.574;9.976;2022-08-19T09:47:04;20.20;99.90
14749;DHT22;7466;53.574;9.976;2022-08-19T09:49:30;20.20;99.90
14749;DHT22;7466;53.574;9.976;2022-08-19T09:51:57;20.10;99.90
14749;DHT22;7466;53.574;9.976;2022-08-19T09:54:24;20.10;99.90
14749;DHT22;7466;53.574;9.976;2022-08-19T09:56:52;20.20;99.90
14749;DHT22;7466;53.574;9.976;2022-08-19T09:59:20;20.30;99.90
14749;DHT22;7466;53.574;9.976;2022-08-19T10:01:47;20.40;99.90
14749;DHT22;7466;53.574;9.976;2022-08-19T10:04:14;20.50;99.90
14749;DHT22;7466;53.574;9.976;2022-08-19T10:06:41;20.30;99.90
14749;DHT22;7466;53.574;9.976;2022-08-19T10:09:09;20.30;99.90
14749;DHT22;7466;53.574;9.976;2022-08-19T10:11:39;20.30;99.90
14749;DHT22;7466;53.574;9.976;2022-08-19T10:14:07;20.30;99.90
14749;DHT22;7466;53.574;9.976;2022-08-19T10:16:36;20.30;99.90
14749;DHT22;7466;53.574;9.976;2022-08-19T10:19:04;20.50;99.90
14749;DHT22;7466;53.574;9.976;2022-08-19T10:21:32;20.50;99.90
14749;DHT22;7466;53.574;9.976;2022-08-19T10:24:01;20.50;99.90
14749;DHT22;7466;53.574;9.976;2022-08-19T10:26:35;20.40;99.90
14749;DHT22;7466;53.574;9.976;2022-08-19T10:29:03;20.60;99.90
14749;DHT22;7466;53.574;9.976;2022-08-19T10:31:32;20.50;99.90
14749;DHT22;7466;53.574;9.976;2022-08-19T10:34:01;20.40;99.90
14749;DHT22;7466;53.574;9.976;2022-08-19T10:36:29;20.40;99.90
14749;DHT22;7466;53.574;9.976;2022-08-19T10:38:58;20.60;99.90
14749;DHT22;7466;53.574;9.976;2022-08-19T10:41:28;20.60;99.90
14749;DHT22;7466;53.574;9.976;2022-08-19T10:43:56;20.50;99.90
14749;DHT22;7466;53.574;9.976;2022-08-19T10:46:25;20.60;99.90
14749;DHT22;7466;53.574;9.976;2022-08-19T10:48:52;20.50;99.90
14749;DHT22;7466;53.574;9.976;2022-08-19T10:51:21;20.50;99.90
14749;DHT22;7466;53.574;9.976;2022-08-19T10:54:06;20.30;99.90
14749;DHT22;7466;53.574;9.976;2022-08-19T10:56:33;20.40;99.90
14749;DHT22;7466;53.574;9.976;2022-08-19T10:59:20;20.40;99.90
14749;DHT22;7466;53.574;9.976;2022-08-19T11:01:48;20.50;99.90
14749;DHT22;7466;53.574;9.976;2022-08-19T11:04:15;20.50;99.90
14749;DHT22;7466;53.574;9.976;2022-08-19T11:06:45;20.60;99.90
14749;DHT22;7466;53.574;9.976;2022-08-19T11:09:13;20.60;99.90
14749;DHT22;7466;53.574;9.976;2022-08-19T11:11:41;20.60;99.90
14749;DHT22;7466;53.574;9.976;2022-08-19T11:14:09;20.60;99.90
14749;DHT22;7466;53.574;9.976;2022-08-19T11:16:36;20.60;99.90
14749;DHT22;7466;53.574;9.976;2022-08-19T11:19:05;20.80;99.90
14749;DHT22;7466;53.574;9.976;2022-08-19T11:21:34;20.80;99.90
14749;DHT22;7466;53.574;9.976;2022-08-19T11:24:05;21.10;99.90
14749;DHT22;7466;53.574;9.976;2022-08-19T11:26:33;21.40;99.90
14749;DHT22;7466;53.574;9.976;2022-08-19T11:29:01;21.50;99.90
14749;DHT22;7466;53.574;9.976;2022-08-19T11:31:30;21.50;99.90
14749;DHT22;7466;53.574;9.976;2022-08-19T11:33:58;21.70;99.90
14749;DHT22;7466;53.574;9.976;2022-08-19T11:36:27;22.10;99.90
14749;DHT22;7466;53.574;9.976;2022-08-19T11:38:55;22.40;99.90
14749;DHT22;7466;53.574;9.976;2022-08-19T11:41:24;22.40;99.90
14749;DHT22;7466;53.574;9.976;2022-08-19T11:43:52;22.20;99.90
14749;DHT22;7466;53.574;9.976;2022-08-19T11:46:21;22.40;99.90
14749;DHT22;7466;53.574;9.976;2022-08-19T11:48:49;22.10;99.90
14749;DHT22;7466;53.574;9.976;2022-08-19T11:51:18;22.10;99.90
14749;DHT22;7466;53.574;9.976;2022-08-19T11:53:45;22.10;99.90
14749;DHT22;7466;53.574;9.976;2022-08-19T11:56:12;22.00;99.90
14749;DHT22;7466;53.574;9.976;2022-08-19T11:58:40;22.10;99.90
14749;DHT22;7466;53.574;9.976;2022-08-19T12:01:10;22.20;99.90
14749;DHT22;7466;53.574;9.976;2022-08-19T12:03:38;22.10;99.90
14749;DHT22;7466;53.574;9.976;2022-08-19T12:06:07;22.00;99.90
14749;DHT22;7466;53.574;9.976;2022-08-19T12:08:34;21.90;99.90
14749;DHT22;7466;53.574;9.976;2022-08-19T12:11:01;22.00;99.90
14749;DHT22;7466;53.574;9.976;2022-08-19T12:13:28;22.00;99.90
14749;DHT22;7466;53.574;9.976;2022-08-19T12:15:57;22.00;99.90
14749;DHT22;7466;53.574;9.976;2022-08-19T12:18:25;22.10;99.90
14749;DHT22;7466;53.574;9.976;2022-08-19T12:20:52;22.20;99.90
14749;DHT22;7466;53.574;9.976;2022-08-19T12:23:21;22.40;99.90
14749;DHT22;7466;53.574;9.976;2022-08-19T12:25:49;22.60;99.90
14749;DHT22;7466;53.574;9.976;2022-08-19T12:28:18;22.80;99.90
14749;DHT22;7466;53.574;9.976;2022-08-19T12:30:45;23.00;99.90
14749;DHT22;7466;53.574;9.976;2022-08-19T12:33:14;23.50;99.90
14749;DHT22;7466;53.574;9.976;2022-08-19T12:35:41;24.30;1.00
14749;DHT22;7466;53.574;9.976;2022-08-19T12:38:09;25.00;1.00
14749;DHT22;7466;53.574;9.976;2022-08-19T12:40:36;25.60;1.00
14749;DHT22;7466;53.574;9.976;2022-08-19T12:43:04;26.00;1.00
14749;DHT22;7466;53.574;9.976;2022-08-19T12:45:31;25.90;1.00
14749;DHT22;7466;53.574;9.976;2022-08-19T12:47:58;26.10;12.10
14749;DHT22;7466;53.574;9.976;2022-08-19T12:50:26;26.40;1.00
14749;DHT22;7466;53.574;9.976;2022-08-19T12:52:53;26.00;11.10
14749;DHT22;7466;53.574;9.976;2022-08-19T12:55:20;26.20;1.00
14749;DHT22;7466;53.574;9.976;2022-08-19T12:57:47;26.80;1.00
14749;DHT22;7466;53.574;9.976;2022-08-19T13:00:17;26.60;1.00
14749;DHT22;7466;53.574;9.976;2022-08-19T13:02:47;26.60;36.90
14749;DHT22;7466;53.574;9.976;2022-08-19T13:05:16;26.20;27.30
14749;DHT22;7466;53.574;9.976;2022-08-19T13:07:46;26.10;1.00
14749;DHT22;7466;53.574;9.976;2022-08-19T13:10:15;26.10;1.00
14749;DHT22;7466;53.574;9.976;2022-08-19T13:12:44;25.50;1.00
14749;DHT22;7466;53.574;9.976;2022-08-19T13:15:11;25.20;1.00
14749;DHT22;7466;53.574;9.976;2022-08-19T13:17:39;25.00;1.00
14749;DHT22;7466;53.574;9.976;2022-08-19T13:20:08;24.40;1.00
14749;DHT22;7466;53.574;9.976;2022-08-19T13:22:36;24.00;1.00
14749;DHT22;7466;53.574;9.976;2022-08-19T13:25:05;24.10;1.00
14749;DHT22;7466;53.574;9.976;2022-08-19T13:27:33;23.60;1.00
14749;DHT22;7466;53.574;9.976;2022-08-19T13:30:00;23.80;1.00
14749;DHT22;7466;53.574;9.976;2022-08-19T13:32:44;23.90;1.00
14749;DHT22;7466;53.574;9.976;2022-08-19T13:35:29;24.00;1.00
14749;DHT22;7466;53.574;9.976;2022-08-19T13:37:56;24.00;1.00
14749;DHT22;7466;53.574;9.976;2022-08-19T13:40:25;24.20;1.00
14749;DHT22;7466;53.574;9.976;2022-08-19T13:42:54;24.40;1.00
14749;DHT22;7466;53.574;9.976;2022-08-19T13:45:23;24.50;1.00
14749;DHT22;7466;53.574;9.976;2022-08-19T13:47:52;24.50;1.00
14749;DHT22;7466;53.574;9.976;2022-08-19T13:50:21;24.10;1.00
14749;DHT22;7466;53.574;9.976;2022-08-19T13:52:50;24.20;1.00
14749;DHT22;7466;53.574;9.976;2022-08-19T13:55:17;23.90;1.00
14749;DHT22;7466;53.574;9.976;2022-08-19T13:57:45;23.90;1.00
14749;DHT22;7466;53.574;9.976;2022-08-19T14:00:15;23.90;1.00
14749;DHT22;7466;53.574;9.976;2022-08-19T14:02:43;24.00;1.00
14749;DHT22;7466;53.574;9.976;2022-08-19T14:05:12;24.10;1.00
14749;DHT22;7466;53.574;9.976;2022-08-19T14:07:40;24.00;1.00
14749;DHT22;7466;53.574;9.976;2022-08-19T14:10:10;24.00;1.00
14749;DHT22;7466;53.574;9.976;2022-08-19T14:12:37;24.00;1.00
14749;DHT22;7466;53.574;9.976;2022-08-19T14:15:07;23.80;1.00
14749;DHT22;7466;53.574;9.976;2022-08-19T14:17:34;23.90;1.00
14749;DHT22;7466;53.574;9.976;2022-08-19T14:20:05;23.90;1.00
14749;DHT22;7466;53.574;9.976;2022-08-19T14:22:33;24.00;1.00
14749;DHT22;7466;53.574;9.976;2022-08-19T14:24:59;24.20;1.00
14749;DHT22;7466;53.574;9.976;2022-08-19T14:27:26;24.00;1.00
14749;DHT22;7466;53.574;9.976;2022-08-19T14:29:53;24.50;1.00
14749;DHT22;7466;53.574;9.976;2022-08-19T14:32:21;25.10;1.00
14749;DHT22;7466;53.574;9.976;2022-08-19T14:34:52;25.40;1.00
14749;DHT22;7466;53.574;9.976;2022-08-19T14:37:19;24.90;1.00
14749;DHT22;7466;53.574;9.976;2022-08-19T14:39:47;24.70;1.00
14749;DHT22;7466;53.574;9.976;2022-08-19T14:42:14;24.70;1.00
14749;DHT22;7466;53.574;9.976;2022-08-19T14:44:40;24.90;1.00
14749;DHT22;7466;53.574;9.976;2022-08-19T14:47:08;25.20;1.00
14749;DHT22;7466;53.574;9.976;2022-08-19T14:49:36;25.50;1.00
14749;DHT22;7466;53.574;9.976;2022-08-19T14:52:05;25.20;1.00
14749;DHT22;7466;53.574;9.976;2022-08-19T14:54:32;25.30;1.00
14749;DHT22;7466;53.574;9.976;2022-08-19T14:56:59;25.20;1.00
14749;DHT22;7466;53.574;9.976;2022-08-19T14:59:25;25.30;1.00
14749;DHT22;7466;53.574;9.976;2022-08-19T15:01:52;25.20;1.00
14749;DHT22;7466;53.574;9.976;2022-08-19T15:04:19;25.00;1.00
14749;DHT22;7466;53.574;9.976;2022-08-19T15:06:47;24.60;1.00
14749;DHT22;7466;53.574;9.976;2022-08-19T15:09:14;24.50;1.00
14749;DHT22;7466;53.574;9.976;2022-08-19T15:11:47;24.20;1.00
14749;DHT22;7466;53.574;9.976;2022-08-19T15:14:14;24.10;1.00
14749;DHT22;7466;53.574;9.976;2022-08-19T15:16:42;24.10;1.00
14749;DHT22;7466;53.574;9.976;2022-08-19T15:19:09;24.10;1.00
14749;DHT22;7466;53.574;9.976;2022-08-19T15:21:37;24.00;1.00
14749;DHT22;7466;53.574;9.976;2022-08-19T15:24:05;23.90;1.00
14749;DHT22;7466;53.574;9.976;2022-08-19T15:26:32;23.60;1.00
14749;DHT22;7466;53.574;9.976;2022-08-19T15:28:59;23.80;1.00
14749;DHT22;7466;53.574;9.976;2022-08-19T15:31:27;24.10;1.00
14749;DHT22;7466;53.574;9.976;2022-08-19T15:33:55;24.00;1.00
14749;DHT22;7466;53.574;9.976;2022-08-19T15:36:22;24.00;1.00
14749;DHT22;7466;53.574;9.976;2022-08-19T15:38:50;23.90;1.00
14749;DHT22;7466;53.574;9.976;2022-08-19T15:41:20;24.30;1.00
14749;DHT22;7466;53.574;9.976;2022-08-19T15:43:53;24.40;1.00
14749;DHT22;7466;53.574;9.976;2022-08-19T15:46:22;24.50;1.00
14749;DHT22;7466;53.574;9.976;2022-08-19T15:48:50;24.60;1.00
14749;DHT22;7466;53.574;9.976;2022-08-19T15:51:18;24.80;1.00
14749;DHT22;7466;53.574;9.976;2022-08-19T15:53:45;24.80;1.00
14749;DHT22;7466;53.574;9.976;2022-08-19T15:56:13;24.80;1.00
14749;DHT22;7466;53.574;9.976;2022-08-19T15:58:42;24.80;1.00